sensor_id;sensor_type;location;lat;lon;timestamp;temperature;humidity
64032;DHT22;50278;47.796;11.968;2023-03-13T00:01:51;3.18;118.99
64032;DHT22;50278;47.796;11.968;2023-03-13T00:04:17;3.03;118.99
64032;DHT22;50278;47.796;11.968;2023-03-13T00:06:42;2.97;118.99
64032;DHT22;50278;47.796;11.968;2023-03-13T00:09:10;2.89;118.99
64032;DHT22;50278;47.796;11.968;2023-03-13T00:11:36;2.88;118.99
64032;DHT22;50278;47.796;11.968;2023-03-13T00:14:02;2.91;118.99
64032;DHT22;50278;47.796;11.968;2023-03-13T00:16:29;2.89;118.99
64032;DHT22;50278;47.796;11.968;2023-03-13T00:18:56;2.73;118.99
64032;DHT22;50278;47.796;11.968;2023-03-13T00:21:25;2.58;118.99
64032;DHT22;50278;47.796;11.968;2023-03-13T00:23:51;2.58;118.99
64032;DHT22;50278;47.796;11.968;2023-03-13T00:26:19;2.40;118.99
64032;DHT22;50278;47.796;11.968;2023-03-13T00:28:46;2.36;118.99
64032;DHT22;50278;47.796;11.968;2023-03-13T00:31:17;2.25;118.99
64032;DHT22;50278;47.796;11.968;2023-03-13T00:33:46;2.20;118.99
64032;DHT22;50278;47.796;11.968;2023-03-13T00:36:14;2.15;118.99
64032;DHT22;50278;47.796;11.968;2023-03-13T00:38:40;2.20;118.99
64032;DHT22;50278;47.796;11.968;2023-03-13T00:41:13;2.07;118.99
64032;DHT22;50278;47.796;11.968;2023-03-13T00:43:40;1.97;118.99
64032;DHT22;50278;47.796;11.968;2023-03-13T00:46:06;1.88;118.99
64032;DHT22;50278;47.796;11.968;2023-03-13T00:48:33;1.86;118.99
64032;DHT22;50278;47.796;11.968;2023-03-13T00:50:59;1.96;118.99
64032;DHT22;50278;47.796;11.968;2023-03-13T00:53:25;1.81;118.99
64032;DHT22;50278;47.796;11.968;2023-03-13T00:55:59;1.73;118.99
64032;DHT22;50278;47.796;11.968;2023-03-13T00:58:28;1.66;118.99
64032;DHT22;50278;47.796;11.968;2023-03-13T01:00:55;1.58;118.99
64032;DHT22;50278;47.796;11.968;2023-03-13T01:03:22;1.58;118.99
64032;DHT22;50278;47.796;11.968;2023-03-13T01:06:00;1.63;118.99
64032;DHT22;50278;47.796;11.968;2023-03-13T01:08:27;1.52;118.99
64032;DHT22;50278;47.796;11.968;2023-03-13T01:11:03;1.48;118.99
64032;DHT22;50278;47.796;11.968;2023-03-13T01:13:30;1.68;118.99
64032;DHT22;50278;47.796;11.968;2023-03-13T01:16:01;1.54;118.99
64032;DHT22;50278;47.796;11.968;2023-03-13T01:18:27;1.45;118.99
64032;DHT22;50278;47.796;11.968;2023-03-13T01:20:52;1.46;118.99
64032;DHT22;50278;47.796;11.968;2023-03-13T01:23:18;1.42;118.99
64032;DHT22;50278;47.796;11.968;2023-03-13T01:25:46;1.51;118.99
64032;DHT22;50278;47.796;11.968;2023-03-13T01:28:12;1.48;118.99
64032;DHT22;50278;47.796;11.968;2023-03-13T01:30:37;1.32;118.99
64032;DHT22;50278;47.796;11.968;2023-03-13T01:33:03;1.37;118.99
64032;DHT22;50278;47.796;11.968;2023-03-13T01:35:28;1.29;118.99
64032;DHT22;50278;47.796;11.968;2023-03-13T01:37:54;1.29;118.99
64032;DHT22;50278;47.796;11.968;2023-03-13T01:40:19;1.48;118.99
64032;DHT22;50278;47.796;11.968;2023-03-13T01:42:56;1.28;118.99
64032;DHT22;50278;47.796;11.968;2023-03-13T01:48:53;1.43;118.99
64032;DHT22;50278;47.796;11.968;2023-03-13T01:51:30;1.31;118.99
64032;DHT22;50278;47.796;11.968;2023-03-13T01:54:14;1.17;118.99
64032;DHT22;50278;47.796;11.968;2023-03-13T01:56:51;1.28;118.99
64032;DHT22;50278;47.796;11.968;2023-03-13T01:59:22;1.32;118.99
64032;DHT22;50278;47.796;11.968;2023-03-13T02:01:50;1.33;118.99
64032;DHT22;50278;47.796;11.968;2023-03-13T02:04:18;1.22;118.99
64032;DHT22;50278;47.796;11.968;2023-03-13T02:06:46;1.04;118.99
64032;DHT22;50278;47.796;11.968;2023-03-13T02:09:18;0.88;118.99
64032;DHT22;50278;47.796;11.968;2023-03-13T02:11:56;1.16;118.99
64032;DHT22;50278;47.796;11.968;2023-03-13T02:14:26;1.60;118.99
64032;DHT22;50278;47.796;11.968;2023-03-13T02:16:54;1.41;118.99
64032;DHT22;50278;47.796;11.968;2023-03-13T02:19:48;1.40;118.99
64032;DHT22;50278;47.796;11.968;2023-03-13T02:22:38;1.06;118.99
64032;DHT22;50278;47.796;11.968;2023-03-13T02:27:51;1.19;118.99
64032;DHT22;50278;47.796;11.968;2023-03-13T02:30:17;1.16;118.99
64032;DHT22;50278;47.796;11.968;2023-03-13T02:32:45;1.05;118.99
64032;DHT22;50278;47.796;11.968;2023-03-13T02:35:13;1.31;118.99
64032;DHT22;50278;47.796;11.968;2023-03-13T02:37:42;1.32;118.99
64032;DHT22;50278;47.796;11.968;2023-03-13T02:40:15;1.16;118.99
64032;DHT22;50278;47.796;11.968;2023-03-13T02:42:44;1.12;118.99
64032;DHT22;50278;47.796;11.968;2023-03-13T02:45:13;0.73;118.99
64032;DHT22;50278;47.796;11.968;2023-03-13T02:47:39;0.68;118.99
64032;DHT22;50278;47.796;11.968;2023-03-13T02:50:05;0.75;118.99
64032;DHT22;50278;47.796;11.968;2023-03-13T02:52:36;0.72;118.99
64032;DHT22;50278;47.796;11.968;2023-03-13T02:55:06;0.63;118.99
64032;DHT22;50278;47.796;11.968;2023-03-13T02:57:33;0.55;118.99
64032;DHT22;50278;47.796;11.968;2023-03-13T03:00:00;0.54;118.99
64032;DHT22;50278;47.796;11.968;2023-03-13T03:02:26;0.51;118.99
64032;DHT22;50278;47.796;11.968;2023-03-13T03:04:52;0.67;118.99
64032;DHT22;50278;47.796;11.968;2023-03-13T03:07:18;0.81;118.99
64032;DHT22;50278;47.796;11.968;2023-03-13T03:09:43;1.04;118.99
64032;DHT22;50278;47.796;11.968;2023-03-13T03:12:15;0.94;118.99
64032;DHT22;50278;47.796;11.968;2023-03-13T03:14:41;0.91;118.99
64032;DHT22;50278;47.796;11.968;2023-03-13T03:17:07;0.86;118.99
64032;DHT22;50278;47.796;11.968;2023-03-13T03:19:32;0.83;118.99
64032;DHT22;50278;47.796;11.968;2023-03-13T03:21:59;0.81;118.99
64032;DHT22;50278;47.796;11.968;2023-03-13T03:24:25;0.80;118.99
64032;DHT22;50278;47.796;11.968;2023-03-13T03:26:50;0.77;118.99
64032;DHT22;50278;47.796;11.968;2023-03-13T03:29:22;0.84;118.99
64032;DHT22;50278;47.796;11.968;2023-03-13T03:31:50;1.05;118.99
64032;DHT22;50278;47.796;11.968;2023-03-13T03:34:16;0.88;118.99
64032;DHT22;50278;47.796;11.968;2023-03-13T03:36:42;0.88;118.99
64032;DHT22;50278;47.796;11.968;2023-03-13T03:39:07;0.92;118.99
64032;DHT22;50278;47.796;11.968;2023-03-13T03:41:34;0.86;118.99
64032;DHT22;50278;47.796;11.968;2023-03-13T03:44:03;0.81;118.99
64032;DHT22;50278;47.796;11.968;2023-03-13T03:46:39;0.95;118.99
64032;DHT22;50278;47.796;11.968;2023-03-13T03:49:04;0.98;118.99
64032;DHT22;50278;47.796;11.968;2023-03-13T03:51:30;1.03;118.99
64032;DHT22;50278;47.796;11.968;2023-03-13T03:53:56;0.88;118.99
64032;DHT22;50278;47.796;11.968;2023-03-13T03:56:21;1.01;118.99
64032;DHT22;50278;47.796;11.968;2023-03-13T03:58:52;1.04;118.99
64032;DHT22;50278;47.796;11.968;2023-03-13T04:01:40;1.02;118.99
64032;DHT22;50278;47.796;11.968;2023-03-13T04:04:06;1.09;118.99
64032;DHT22;50278;47.796;11.968;2023-03-13T04:06:32;1.13;118.99
64032;DHT22;50278;47.796;11.968;2023-03-13T04:08:58;1.17;118.99
64032;DHT22;50278;47.796;11.968;2023-03-13T04:11:25;1.14;118.99
64032;DHT22;50278;47.796;11.968;2023-03-13T04:13:53;1.12;118.99
64032;DHT22;50278;47.796;11.968;2023-03-13T04:16:19;1.14;118.99
64032;DHT22;50278;47.796;11.968;2023-03-13T04:18:46;1.39;118.99
64032;DHT22;50278;47.796;11.968;2023-03-13T04:21:11;1.29;118.99
64032;DHT22;50278;47.796;11.968;2023-03-13T04:23:43;1.34;118.99
64032;DHT22;50278;47.796;11.968;2023-03-13T04:26:11;1.53;118.99
64032;DHT22;50278;47.796;11.968;2023-03-13T04:28:38;1.36;118.99
64032;DHT22;50278;47.796;11.968;2023-03-13T04:31:06;1.55;118.99
64032;DHT22;50278;47.796;11.968;2023-03-13T04:34:01;1.50;118.99
64032;DHT22;50278;47.796;11.968;2023-03-13T04:36:45;1.48;118.99
64032;DHT22;50278;47.796;11.968;2023-03-13T04:39:33;1.54;118.99
64032;DHT22;50278;47.796;11.968;2023-03-13T04:42:15;1.65;118.99
64032;DHT22;50278;47.796;11.968;2023-03-13T04:44:58;1.64;118.99
64032;DHT22;50278;47.796;11.968;2023-03-13T04:47:47;1.72;118.99
64032;DHT22;50278;47.796;11.968;2023-03-13T04:50:36;1.81;118.99
64032;DHT22;50278;47.796;11.968;2023-03-13T04:53:11;1.92;118.99
64032;DHT22;50278;47.796;11.968;2023-03-13T04:55:50;2.05;118.99
64032;DHT22;50278;47.796;11.968;2023-03-13T04:58:33;1.95;118.99
64032;DHT22;50278;47.796;11.968;2023-03-13T05:01:22;2.11;118.99
64032;DHT22;50278;47.796;11.968;2023-03-13T05:04:15;2.21;118.99
64032;DHT22;50278;47.796;11.968;2023-03-13T05:07:04;2.30;118.99
64032;DHT22;50278;47.796;11.968;2023-03-13T05:09:55;2.41;118.99
64032;DHT22;50278;47.796;11.968;2023-03-13T05:12:29;2.44;118.99
64032;DHT22;50278;47.796;11.968;2023-03-13T05:15:01;2.51;118.99
64032;DHT22;50278;47.796;11.968;2023-03-13T05:17:45;2.45;118.99
64032;DHT22;50278;47.796;11.968;2023-03-13T05:20:23;2.54;118.99
64032;DHT22;50278;47.796;11.968;2023-03-13T05:22:59;2.36;118.99
64032;DHT22;50278;47.796;11.968;2023-03-13T05:25:45;2.41;118.99
64032;DHT22;50278;47.796;11.968;2023-03-13T05:28:40;2.53;118.99
64032;DHT22;50278;47.796;11.968;2023-03-13T05:31:23;2.53;118.99
64032;DHT22;50278;47.796;11.968;2023-03-13T05:34:05;2.57;118.99
64032;DHT22;50278;47.796;11.968;2023-03-13T05:36:49;2.61;118.99
64032;DHT22;50278;47.796;11.968;2023-03-13T05:39:33;2.65;118.99
64032;DHT22;50278;47.796;11.968;2023-03-13T05:42:19;2.67;118.99
64032;DHT22;50278;47.796;11.968;2023-03-13T05:45:08;2.67;118.99
64032;DHT22;50278;47.796;11.968;2023-03-13T05:47:52;2.50;118.99
64032;DHT22;50278;47.796;11.968;2023-03-13T05:50:37;2.62;118.99
64032;DHT22;50278;47.796;11.968;2023-03-13T05:53:18;2.64;118.99
64032;DHT22;50278;47.796;11.968;2023-03-13T05:56:05;2.70;118.99
64032;DHT22;50278;47.796;11.968;2023-03-13T05:58:53;2.80;118.99
64032;DHT22;50278;47.796;11.968;2023-03-13T06:01:41;2.84;118.99
64032;DHT22;50278;47.796;11.968;2023-03-13T06:04:27;2.90;118.99
64032;DHT22;50278;47.796;11.968;2023-03-13T06:06:53;3.02;118.99
64032;DHT22;50278;47.796;11.968;2023-03-13T06:09:19;3.05;118.99
64032;DHT22;50278;47.796;11.968;2023-03-13T06:11:44;3.10;118.99
64032;DHT22;50278;47.796;11.968;2023-03-13T06:14:10;3.14;118.99
64032;DHT22;50278;47.796;11.968;2023-03-13T06:16:41;3.20;118.99
64032;DHT22;50278;47.796;11.968;2023-03-13T06:19:16;3.28;118.99
64032;DHT22;50278;47.796;11.968;2023-03-13T06:21:42;3.44;118.99
64032;DHT22;50278;47.796;11.968;2023-03-13T06:24:08;3.50;118.99
64032;DHT22;50278;47.796;11.968;2023-03-13T06:26:33;3.67;118.99
64032;DHT22;50278;47.796;11.968;2023-03-13T06:28:59;3.53;118.99
64032;DHT22;50278;47.796;11.968;2023-03-13T06:31:24;3.59;118.99
64032;DHT22;50278;47.796;11.968;2023-03-13T06:33:53;3.78;118.99
64032;DHT22;50278;47.796;11.968;2023-03-13T06:36:19;4.02;118.99
64032;DHT22;50278;47.796;11.968;2023-03-13T06:38:45;4.10;118.99
64032;DHT22;50278;47.796;11.968;2023-03-13T06:41:10;4.32;118.99
64032;DHT22;50278;47.796;11.968;2023-03-13T06:43:36;4.30;118.99
64032;DHT22;50278;47.796;11.968;2023-03-13T06:46:06;4.48;118.99
64032;DHT22;50278;47.796;11.968;2023-03-13T06:48:32;4.56;118.99
64032;DHT22;50278;47.796;11.968;2023-03-13T06:50:58;4.62;118.99
64032;DHT22;50278;47.796;11.968;2023-03-13T06:53:23;4.64;118.99
64032;DHT22;50278;47.796;11.968;2023-03-13T06:55:49;4.75;118.99
64032;DHT22;50278;47.796;11.968;2023-03-13T06:58:16;4.74;118.99
64032;DHT22;50278;47.796;11.968;2023-03-13T07:00:41;4.58;118.99
64032;DHT22;50278;47.796;11.968;2023-03-13T07:03:11;4.64;118.99
64032;DHT22;50278;47.796;11.968;2023-03-13T07:05:38;5.02;118.99
64032;DHT22;50278;47.796;11.968;2023-03-13T07:08:04;5.11;118.99
64032;DHT22;50278;47.796;11.968;2023-03-13T07:10:30;5.18;118.99
64032;DHT22;50278;47.796;11.968;2023-03-13T07:12:56;5.05;118.99
64032;DHT22;50278;47.796;11.968;2023-03-13T07:15:22;5.11;118.99
64032;DHT22;50278;47.796;11.968;2023-03-13T07:17:47;5.18;118.99
64032;DHT22;50278;47.796;11.968;2023-03-13T07:20:12;5.23;118.99
64032;DHT22;50278;47.796;11.968;2023-03-13T07:22:38;5.24;118.99
64032;DHT22;50278;47.796;11.968;2023-03-13T07:25:04;5.28;118.99
64032;DHT22;50278;47.796;11.968;2023-03-13T07:27:30;5.27;118.99
64032;DHT22;50278;47.796;11.968;2023-03-13T07:29:56;5.37;118.99
64032;DHT22;50278;47.796;11.968;2023-03-13T07:32:22;5.51;118.99
64032;DHT22;50278;47.796;11.968;2023-03-13T07:34:47;5.51;118.99
64032;DHT22;50278;47.796;11.968;2023-03-13T07:37:14;5.47;118.99
64032;DHT22;50278;47.796;11.968;2023-03-13T07:39:41;5.33;118.99
64032;DHT22;50278;47.796;11.968;2023-03-13T07:42:09;5.37;118.99
64032;DHT22;50278;47.796;11.968;2023-03-13T07:44:34;5.47;118.99
64032;DHT22;50278;47.796;11.968;2023-03-13T07:47:00;5.53;118.99
64032;DHT22;50278;47.796;11.968;2023-03-13T07:49:25;5.59;118.99
64032;DHT22;50278;47.796;11.968;2023-03-13T07:51:51;5.69;118.99
64032;DHT22;50278;47.796;11.968;2023-03-13T07:54:16;5.77;118.99
64032;DHT22;50278;47.796;11.968;2023-03-13T07:56:42;5.72;118.99
64032;DHT22;50278;47.796;11.968;2023-03-13T07:59:08;6.07;118.99
64032;DHT22;50278;47.796;11.968;2023-03-13T08:01:33;6.07;118.99
64032;DHT22;50278;47.796;11.968;2023-03-13T08:03:59;6.20;118.99
64032;DHT22;50278;47.796;11.968;2023-03-13T08:06:30;6.36;118.99
64032;DHT22;50278;47.796;11.968;2023-03-13T08:08:57;6.61;112.86
64032;DHT22;50278;47.796;11.968;2023-03-13T08:11:24;6.58;111.65
64032;DHT22;50278;47.796;11.968;2023-03-13T08:13:54;6.45;116.28
64032;DHT22;50278;47.796;11.968;2023-03-13T08:16:25;6.58;116.30
64032;DHT22;50278;47.796;11.968;2023-03-13T08:18:53;6.88;108.94
64032;DHT22;50278;47.796;11.968;2023-03-13T08:21:22;6.65;105.70
64032;DHT22;50278;47.796;11.968;2023-03-13T08:23:51;6.45;110.00
64032;DHT22;50278;47.796;11.968;2023-03-13T08:26:18;6.44;109.53
64032;DHT22;50278;47.796;11.968;2023-03-13T08:28:45;6.46;107.40
64032;DHT22;50278;47.796;11.968;2023-03-13T08:31:13;6.57;108.49
64032;DHT22;50278;47.796;11.968;2023-03-13T08:33:41;6.70;106.70
64032;DHT22;50278;47.796;11.968;2023-03-13T08:36:11;6.76;108.23
64032;DHT22;50278;47.796;11.968;2023-03-13T08:38:37;6.87;110.39
64032;DHT22;50278;47.796;11.968;2023-03-13T08:41:03;7.09;110.39
64032;DHT22;50278;47.796;11.968;2023-03-13T08:43:29;7.05;109.94
64032;DHT22;50278;47.796;11.968;2023-03-13T08:45:55;7.12;109.68
64032;DHT22;50278;47.796;11.968;2023-03-13T08:48:21;7.24;108.97
64032;DHT22;50278;47.796;11.968;2023-03-13T08:50:47;7.28;104.86
64032;DHT22;50278;47.796;11.968;2023-03-13T08:53:12;7.37;104.92
64032;DHT22;50278;47.796;11.968;2023-03-13T08:55:38;7.31;106.00
64032;DHT22;50278;47.796;11.968;2023-03-13T08:58:03;7.43;101.08
64032;DHT22;50278;47.796;11.968;2023-03-13T09:00:29;7.43;99.42
64032;DHT22;50278;47.796;11.968;2023-03-13T09:02:56;7.43;98.52
64032;DHT22;50278;47.796;11.968;2023-03-13T09:05:22;7.54;98.79
64032;DHT22;50278;47.796;11.968;2023-03-13T09:07:48;7.59;98.06
64032;DHT22;50278;47.796;11.968;2023-03-13T09:10:14;7.72;100.35
64032;DHT22;50278;47.796;11.968;2023-03-13T09:12:40;7.77;102.58
64032;DHT22;50278;47.796;11.968;2023-03-13T09:15:07;7.68;99.09
64032;DHT22;50278;47.796;11.968;2023-03-13T09:17:32;7.79;101.71
64032;DHT22;50278;47.796;11.968;2023-03-13T09:19:58;7.75;99.60
64032;DHT22;50278;47.796;11.968;2023-03-13T09:22:23;7.85;100.28
64032;DHT22;50278;47.796;11.968;2023-03-13T09:24:49;7.78;98.76
64032;DHT22;50278;47.796;11.968;2023-03-13T09:27:14;7.90;97.45
64032;DHT22;50278;47.796;11.968;2023-03-13T09:29:40;7.92;97.22
64032;DHT22;50278;47.796;11.968;2023-03-13T09:32:09;8.04;97.25
64032;DHT22;50278;47.796;11.968;2023-03-13T09:34:34;8.11;97.20
64032;DHT22;50278;47.796;11.968;2023-03-13T09:37:00;8.17;98.56
64032;DHT22;50278;47.796;11.968;2023-03-13T09:39:25;8.18;97.48
64032;DHT22;50278;47.796;11.968;2023-03-13T09:42:24;8.20;97.82
64032;DHT22;50278;47.796;11.968;2023-03-13T09:44:55;8.65;94.22
64032;DHT22;50278;47.796;11.968;2023-03-13T09:47:49;8.59;92.74
64032;DHT22;50278;47.796;11.968;2023-03-13T09:50:17;8.70;92.42
64032;DHT22;50278;47.796;11.968;2023-03-13T09:52:44;8.61;91.61
64032;DHT22;50278;47.796;11.968;2023-03-13T09:55:19;8.48;88.57
64032;DHT22;50278;47.796;11.968;2023-03-13T10:00:18;8.75;86.27
64032;DHT22;50278;47.796;11.968;2023-03-13T10:03:02;8.97;81.11
64032;DHT22;50278;47.796;11.968;2023-03-13T10:05:31;9.79;75.38
64032;DHT22;50278;47.796;11.968;2023-03-13T10:08:07;9.63;77.60
64032;DHT22;50278;47.796;11.968;2023-03-13T10:10:42;9.86;75.25
64032;DHT22;50278;47.796;11.968;2023-03-13T10:16:00;10.39;72.33
64032;DHT22;50278;47.796;11.968;2023-03-13T10:18:29;10.74;69.28
64032;DHT22;50278;47.796;11.968;2023-03-13T10:21:18;10.72;67.41
64032;DHT22;50278;47.796;11.968;2023-03-13T10:24:04;11.13;64.88
64032;DHT22;50278;47.796;11.968;2023-03-13T10:26:35;10.86;48.01
64032;DHT22;50278;47.796;11.968;2023-03-13T10:29:20;10.94;47.49
64032;DHT22;50278;47.796;11.968;2023-03-13T10:31:58;11.07;46.99
64032;DHT22;50278;47.796;11.968;2023-03-13T10:34:26;11.30;46.58
64032;DHT22;50278;47.796;11.968;2023-03-13T10:37:00;11.51;45.26
64032;DHT22;50278;47.796;11.968;2023-03-13T10:39:28;11.58;52.57
64032;DHT22;50278;47.796;11.968;2023-03-13T10:42:20;11.76;50.72
64032;DHT22;50278;47.796;11.968;2023-03-13T10:44:48;12.12;46.06
64032;DHT22;50278;47.796;11.968;2023-03-13T10:47:14;12.17;52.23
64032;DHT22;50278;47.796;11.968;2023-03-13T10:49:49;12.56;54.23
64032;DHT22;50278;47.796;11.968;2023-03-13T10:52:33;12.28;47.17
64032;DHT22;50278;47.796;11.968;2023-03-13T10:55:03;12.92;38.66
64032;DHT22;50278;47.796;11.968;2023-03-13T10:57:40;12.49;44.17
64032;DHT22;50278;47.796;11.968;2023-03-13T11:00:38;12.28;45.65
64032;DHT22;50278;47.796;11.968;2023-03-13T11:03:15;12.90;43.30
64032;DHT22;50278;47.796;11.968;2023-03-13T11:05:45;13.43;39.56
64032;DHT22;50278;47.796;11.968;2023-03-13T11:08:24;13.25;41.39
64032;DHT22;50278;47.796;11.968;2023-03-13T11:10:58;13.40;39.49
64032;DHT22;50278;47.796;11.968;2023-03-13T11:13:50;13.37;38.07
64032;DHT22;50278;47.796;11.968;2023-03-13T11:16:26;14.05;35.84
64032;DHT22;50278;47.796;11.968;2023-03-13T11:21:57;14.20;38.55
64032;DHT22;50278;47.796;11.968;2023-03-13T11:35:55;14.89;36.82
64032;DHT22;50278;47.796;11.968;2023-03-13T11:38:30;15.45;35.88
64032;DHT22;50278;47.796;11.968;2023-03-13T11:46:39;15.98;33.92
64032;DHT22;50278;47.796;11.968;2023-03-13T11:57:13;17.72;24.93
64032;DHT22;50278;47.796;11.968;2023-03-13T12:02:22;18.21;19.73
64032;DHT22;50278;47.796;11.968;2023-03-13T12:04:55;18.87;17.52
64032;DHT22;50278;47.796;11.968;2023-03-13T12:10:15;19.55;12.39
64032;DHT22;50278;47.796;11.968;2023-03-13T12:15:19;19.75;12.29
64032;DHT22;50278;47.796;11.968;2023-03-13T12:26:13;19.42;12.35
64032;DHT22;50278;47.796;11.968;2023-03-13T12:28:49;19.45;13.76
64032;DHT22;50278;47.796;11.968;2023-03-13T12:31:31;20.13;11.69
64032;DHT22;50278;47.796;11.968;2023-03-13T12:36:43;21.05;8.71
64032;DHT22;50278;47.796;11.968;2023-03-13T12:39:36;20.22;9.78
64032;DHT22;50278;47.796;11.968;2023-03-13T12:42:22;19.63;8.36
64032;DHT22;50278;47.796;11.968;2023-03-13T12:44:53;20.09;5.76
64032;DHT22;50278;47.796;11.968;2023-03-13T12:47:32;20.85;4.49
64032;DHT22;50278;47.796;11.968;2023-03-13T12:50:20;19.74;7.80
64032;DHT22;50278;47.796;11.968;2023-03-13T12:52:54;19.89;6.84
64032;DHT22;50278;47.796;11.968;2023-03-13T13:00:51;19.70;6.37
64032;DHT22;50278;47.796;11.968;2023-03-13T13:06:14;19.36;2.37
64032;DHT22;50278;47.796;11.968;2023-03-13T13:11:45;19.00;6.76
64032;DHT22;50278;47.796;11.968;2023-03-13T13:24:50;19.77;3.86
64032;DHT22;50278;47.796;11.968;2023-03-13T13:29:59;21.58;0.23
64032;DHT22;50278;47.796;11.968;2023-03-13T13:32:30;21.69;3.70
64032;DHT22;50278;47.796;11.968;2023-03-13T13:37:47;21.66;0.36
64032;DHT22;50278;47.796;11.968;2023-03-13T13:47:46;22.90;-2.93
64032;DHT22;50278;47.796;11.968;2023-03-13T13:52:42;22.64;-2.15
64032;DHT22;50278;47.796;11.968;2023-03-13T13:58:00;22.92;-3.14
64032;DHT22;50278;47.796;11.968;2023-03-13T14:00:35;22.86;-5.21
64032;DHT22;50278;47.796;11.968;2023-03-13T14:03:22;22.48;-2.09
64032;DHT22;50278;47.796;11.968;2023-03-13T14:06:19;23.35;-6.00
64032;DHT22;50278;47.796;11.968;2023-03-13T14:08:47;24.14;-6.00
64032;DHT22;50278;47.796;11.968;2023-03-13T14:11:29;23.08;-6.00
64032;DHT22;50278;47.796;11.968;2023-03-13T14:14:20;24.02;-6.00
64032;DHT22;50278;47.796;11.968;2023-03-13T14:16:50;22.60;-5.41
64032;DHT22;50278;47.796;11.968;2023-03-13T14:19:28;22.29;-4.63
64032;DHT22;50278;47.796;11.968;2023-03-13T14:22:08;22.12;-4.54
64032;DHT22;50278;47.796;11.968;2023-03-13T14:24:35;22.88;-6.00
64032;DHT22;50278;47.796;11.968;2023-03-13T14:27:01;22.80;-5.62
64032;DHT22;50278;47.796;11.968;2023-03-13T14:29:27;22.67;-5.50
64032;DHT22;50278;47.796;11.968;2023-03-13T14:31:59;22.90;-5.11
64032;DHT22;50278;47.796;11.968;2023-03-13T14:34:26;23.13;-5.29
64032;DHT22;50278;47.796;11.968;2023-03-13T14:36:57;22.71;-5.01
64032;DHT22;50278;47.796;11.968;2023-03-13T14:44:30;23.47;-5.50
64032;DHT22;50278;47.796;11.968;2023-03-13T14:46:57;24.82;-6.00
64032;DHT22;50278;47.796;11.968;2023-03-13T14:49:26;25.31;-6.00
64032;DHT22;50278;47.796;11.968;2023-03-13T14:52:02;25.43;-6.00
64032;DHT22;50278;47.796;11.968;2023-03-13T14:59:28;23.16;-6.00
64032;DHT22;50278;47.796;11.968;2023-03-13T15:04:59;22.22;-6.00
64032;DHT22;50278;47.796;11.968;2023-03-13T15:07:39;21.88;-4.68
64032;DHT22;50278;47.796;11.968;2023-03-13T15:10:35;22.19;-6.00
64032;DHT22;50278;47.796;11.968;2023-03-13T15:15:49;21.57;-4.67
64032;DHT22;50278;47.796;11.968;2023-03-13T15:18:23;20.06;-1.41
64032;DHT22;50278;47.796;11.968;2023-03-13T15:20:50;19.65;-0.47
64032;DHT22;50278;47.796;11.968;2023-03-13T15:23:18;19.65;-0.38
64032;DHT22;50278;47.796;11.968;2023-03-13T15:25:44;18.73;2.76
64032;DHT22;50278;47.796;11.968;2023-03-13T15:28:18;18.19;8.60
64032;DHT22;50278;47.796;11.968;2023-03-13T15:30:48;18.55;7.28
64032;DHT22;50278;47.796;11.968;2023-03-13T15:33:15;18.54;9.88
64032;DHT22;50278;47.796;11.968;2023-03-13T15:35:41;17.64;14.92
64032;DHT22;50278;47.796;11.968;2023-03-13T15:38:13;17.72;11.92
64032;DHT22;50278;47.796;11.968;2023-03-13T15:40:39;17.78;14.32
64032;DHT22;50278;47.796;11.968;2023-03-13T15:43:05;17.70;18.77
64032;DHT22;50278;47.796;11.968;2023-03-13T15:45:30;17.56;22.74
64032;DHT22;50278;47.796;11.968;2023-03-13T15:47:58;16.91;23.97
64032;DHT22;50278;47.796;11.968;2023-03-13T15:50:24;16.73;24.73
64032;DHT22;50278;47.796;11.968;2023-03-13T15:52:54;16.37;32.30
64032;DHT22;50278;47.796;11.968;2023-03-13T15:55:20;16.59;31.89
64032;DHT22;50278;47.796;11.968;2023-03-13T15:57:48;16.30;36.69
64032;DHT22;50278;47.796;11.968;2023-03-13T16:00:20;16.03;38.56
64032;DHT22;50278;47.796;11.968;2023-03-13T16:02:46;15.90;38.20
64032;DHT22;50278;47.796;11.968;2023-03-13T16:05:12;16.16;34.04
64032;DHT22;50278;47.796;11.968;2023-03-13T16:07:37;16.48;31.12
64032;DHT22;50278;47.796;11.968;2023-03-13T16:10:05;17.40;22.76
64032;DHT22;50278;47.796;11.968;2023-03-13T16:12:36;18.44;20.90
64032;DHT22;50278;47.796;11.968;2023-03-13T16:15:02;19.20;17.96
64032;DHT22;50278;47.796;11.968;2023-03-13T16:17:29;18.23;22.79
64032;DHT22;50278;47.796;11.968;2023-03-13T16:19:54;17.15;23.78
64032;DHT22;50278;47.796;11.968;2023-03-13T16:22:20;16.62;29.32
64032;DHT22;50278;47.796;11.968;2023-03-13T16:24:45;16.67;27.18
64032;DHT22;50278;47.796;11.968;2023-03-13T16:27:15;16.00;32.92
64032;DHT22;50278;47.796;11.968;2023-03-13T16:29:42;15.32;36.96
64032;DHT22;50278;47.796;11.968;2023-03-13T16:32:10;14.40;44.72
64032;DHT22;50278;47.796;11.968;2023-03-13T16:34:36;14.17;47.04
64032;DHT22;50278;47.796;11.968;2023-03-13T16:37:09;13.92;44.62
64032;DHT22;50278;47.796;11.968;2023-03-13T16:39:35;13.59;44.84
64032;DHT22;50278;47.796;11.968;2023-03-13T16:42:00;13.14;48.53
64032;DHT22;50278;47.796;11.968;2023-03-13T16:44:26;12.53;50.56
64032;DHT22;50278;47.796;11.968;2023-03-13T16:46:51;12.29;55.12
64032;DHT22;50278;47.796;11.968;2023-03-13T16:49:17;11.99;56.13
64032;DHT22;50278;47.796;11.968;2023-03-13T16:51:42;11.84;55.73
64032;DHT22;50278;47.796;11.968;2023-03-13T16:54:08;11.19;61.61
64032;DHT22;50278;47.796;11.968;2023-03-13T16:56:38;11.14;60.97
64032;DHT22;50278;47.796;11.968;2023-03-13T16:59:12;11.15;60.26
64032;DHT22;50278;47.796;11.968;2023-03-13T17:01:38;11.04;60.67
64032;DHT22;50278;47.796;11.968;2023-03-13T17:04:04;10.92;61.15
64032;DHT22;50278;47.796;11.968;2023-03-13T17:06:36;10.71;60.68
64032;DHT22;50278;47.796;11.968;2023-03-13T17:09:03;10.38;64.22
64032;DHT22;50278;47.796;11.968;2023-03-13T17:11:30;10.28;66.13
64032;DHT22;50278;47.796;11.968;2023-03-13T17:13:56;9.91;67.74
64032;DHT22;50278;47.796;11.968;2023-03-13T17:16:35;9.80;67.40
64032;DHT22;50278;47.796;11.968;2023-03-13T17:19:01;9.69;66.01
64032;DHT22;50278;47.796;11.968;2023-03-13T17:21:29;9.56;67.31
64032;DHT22;50278;47.796;11.968;2023-03-13T17:23:56;9.40;67.55
64032;DHT22;50278;47.796;11.968;2023-03-13T17:26:25;9.50;65.74
64032;DHT22;50278;47.796;11.968;2023-03-13T17:28:52;9.51;64.27
64032;DHT22;50278;47.796;11.968;2023-03-13T17:31:20;9.57;62.95
64032;DHT22;50278;47.796;11.968;2023-03-13T17:33:46;9.07;70.93
64032;DHT22;50278;47.796;11.968;2023-03-13T17:36:22;8.85;72.98